This demonstration page uses our WeatherBlox Daily Observations layout. Learn more.

39.92423, -83.80882

Hourly Observations for September 3, 2017

Temp ( °F °C ) Dew Point ( °F °C ) Humidity (%) Winds ( mph kmh ) Pressure ( in mb ) Visibility ( mi km ) Precip ( " mm )
12:56 am 00:56 Cloudy with Mist and Fog 58 14.4 58 14.4 100 100 WSW 7 11 30 1016 4 6.437376 0 0
1:56 am 01:56 Cloudy with Mist and Fog 59 15 58 14.4 96 96 WSW 6 9 30 1016 4 6.437376 0 0
2:56 am 02:56 Cloudy with Mist and Fog 59 15 58 14.4 96 96 WSW 9 15 29.97 1015 6 9.656064 0 0
3:56 am 03:56 Cloudy with Mist and Fog 58 14.4 57 13.9 97 97 SW 7 11 29.97 1015 5 8.04672 0 0
4:56 am 04:56 Cloudy with Mist and Fog 58 14.4 57 13.9 97 97 W 6 9 30 1016 6 9.656064 0.001 0.001
5:56 am 05:56 Cloudy with Mist and Fog 58 14.4 57 13.9 97 97 SW 6 9 30 1016 4 6.437376 0 0
6:25 am 06:25 Cloudy with Mist and Fog 57 14 55 13 94 94 SW 8 13 30 1016 4 6.437376 0 0
6:56 am 06:56 Cloudy with Mist and Fog 57 13.9 56 13.3 96 96 SW 8 13 30 1016 3 4.828032 0 0
7:00 am 07:00 Cloudy with Mist and Fog 57 14 55 13 94 94 SW 9 15 30.03 1017 2.5 4.02336 0 0
7:42 am 07:42 Mostly Cloudy with Mist and Fog 57 14 55 13 94 94 SW 9 15 30.03 1017 2.5 4.02336 0 0
7:56 am 07:56 Mostly Cloudy with Mist and Fog 57 13.9 56 13.3 96 96 SW 10 17 30 1016 3 4.828032 0 0
8:56 am 08:56 Sunny 59 15 57 13.9 93 93 WSW 9 15 30 1016 9 14.484096 0 0
9:56 am 09:56 Sunny 63 17.2 57 13.9 81 81 WSW 9 15 30.03 1017 10 16.09344 0 0
10:56 am 10:56 Sunny 68 20 57 13.9 68 68 W 12 19 30.03 1017 10 16.09344 0 0
11:56 am 11:56 Sunny 70 21.1 58 14.4 66 66 W 7 11 30.03 1017 10 16.09344 0 0
12:56 pm 12:56 Mostly Sunny 73 22.8 60 15.6 64 64 WNW 12 19 30.03 1017 10 16.09344 0 0
1:56 pm 13:56 Sunny 74 23.3 60 15.6 62 62 N 7 11 30 1016 10 16.09344 0 0
2:56 pm 14:56 Mostly Cloudy 77 25 59 15 54 54 W 10 17 30 1016 10 16.09344 0 0
3:56 pm 15:56 Mostly Sunny 78 25.6 59 15 52 52 N 7 11 30 1016 10 16.09344 0 0
4:56 pm 16:56 Partly Cloudy 78 25.6 57 13.9 48 48 W 9 15 30 1016 10 16.09344 0 0
5:56 pm 17:56 Sunny 78 25.6 56 13.3 47 47 W 7 11 30 1016 10 16.09344 0 0
6:56 pm 18:56 Sunny 73 22.8 57 13.9 57 57 W 5 7 30 1016 10 16.09344 0 0
7:56 pm 19:56 Sunny 67 19.4 58 14.4 73 73 WSW 6 9 30 1016 10 16.09344 0 0
8:56 pm 20:56 Clear 64 17.8 56 13.3 75 75 SW 5 7 30 1016 10 16.09344 0 0
9:56 pm 21:56 Clear 61 16.1 55 12.8 81 81 SSW 6 9 30.03 1017 10 16.09344 0 0
10:56 pm 22:56 Clear 60 15.6 55 12.8 84 84 SW 3 6 30.03 1017 10 16.09344 0 0
11:56 pm 23:56 Clear 58 14.4 55 12.8 90 90 Calm 30.03 1017 10 16.09344 0 0

Powered by AerisWeather